createdAt,value
2018-06-29T00:00:02.454Z,14.37
2018-06-29T00:02:30.817Z,14.43
2018-06-29T00:04:59.140Z,14.17
2018-06-29T00:07:27.504Z,14.10
2018-06-29T00:09:55.939Z,13.30
2018-06-29T00:12:24.364Z,13.47
2018-06-29T00:14:52.708Z,13.67
2018-06-29T00:17:21.123Z,13.23
2018-06-29T00:19:49.508Z,13.13
2018-06-29T00:22:17.977Z,12.67
2018-06-29T00:24:46.373Z,12.90
2018-06-29T00:27:14.840Z,12.67
2018-06-29T00:29:43.223Z,13.83
2018-06-29T00:32:11.635Z,13.73
2018-06-29T00:34:40.001Z,13.20
2018-06-29T00:37:08.363Z,13.40
2018-06-29T00:39:36.762Z,13.20
2018-06-29T00:42:05.204Z,13.23
2018-06-29T00:44:33.603Z,14.30
2018-06-29T00:47:01.981Z,14.33
2018-06-29T00:49:30.331Z,14.67
2018-06-29T00:51:58.688Z,14.33
2018-06-29T00:54:26.769Z,14.90
2018-06-29T00:56:55.196Z,14.93
2018-06-29T00:59:23.573Z,14.47
2018-06-29T01:01:51.912Z,13.97
2018-06-29T01:04:20.301Z,14.17
2018-06-29T01:06:48.659Z,14.63
2018-06-29T01:09:17.002Z,14.47
2018-06-29T01:11:45.377Z,14.23
2018-06-29T01:14:13.737Z,14.43
2018-06-29T01:16:42.140Z,14.43
2018-06-29T01:19:10.511Z,14.60
2018-06-29T01:21:38.891Z,15.13
2018-06-29T01:24:07.376Z,13.97
2018-06-29T01:26:35.751Z,14.50
2018-06-29T01:29:04.104Z,14.00
2018-06-29T01:31:32.455Z,14.63
2018-06-29T01:34:00.851Z,14.57
2018-06-29T01:36:29.204Z,14.40
2018-06-29T01:38:57.632Z,15.13
2018-06-29T01:41:25.994Z,14.50
2018-06-29T01:43:54.350Z,14.43
2018-06-29T01:46:22.732Z,15.67
2018-06-29T01:48:51.094Z,15.43
2018-06-29T01:51:19.483Z,15.27
2018-06-29T01:53:47.835Z,15.23
2018-06-29T01:56:16.269Z,15.23
2018-06-29T01:58:44.672Z,14.70
2018-06-29T02:01:12.767Z,14.50
2018-06-29T02:03:41.129Z,15.00
2018-06-29T02:06:09.480Z,15.40
2018-06-29T02:08:37.877Z,15.47
2018-06-29T02:11:06.587Z,15.03
2018-06-29T02:13:34.962Z,15.40
2018-06-29T02:16:03.346Z,15.70
2018-06-29T02:18:31.740Z,15.43
2018-06-29T02:21:00.097Z,15.50
2018-06-29T02:23:28.481Z,15.67
2018-06-29T02:25:56.860Z,14.40
2018-06-29T02:28:25.261Z,15.60
2018-06-29T02:30:53.688Z,14.80
2018-06-29T02:33:22.044Z,14.93
2018-06-29T02:35:50.408Z,14.57
2018-06-29T02:38:18.962Z,15.73
2018-06-29T02:40:47.340Z,14.43
2018-06-29T02:43:15.737Z,15.07
2018-06-29T02:45:44.124Z,15.97
2018-06-29T02:48:12.476Z,16.37
2018-06-29T02:50:40.863Z,14.30
2018-06-29T02:53:09.505Z,15.27
2018-06-29T02:55:37.581Z,15.07
2018-06-29T02:58:05.674Z,16.33
2018-06-29T03:00:34.012Z,15.83
2018-06-29T03:03:02.491Z,16.00
2018-06-29T03:05:30.820Z,16.50
2018-06-29T03:07:59.176Z,15.60
2018-06-29T03:10:27.539Z,15.63
2018-06-29T03:12:55.988Z,17.57
2018-06-29T03:15:24.420Z,15.63
2018-06-29T03:17:52.788Z,16.77
2018-06-29T03:20:21.163Z,15.53
2018-06-29T03:22:49.565Z,16.60
2018-06-29T03:25:18.024Z,16.20
2018-06-29T03:27:46.544Z,15.63
2018-06-29T03:30:14.917Z,15.43
2018-06-29T03:32:43.362Z,17.03
2018-06-29T03:35:11.716Z,15.73
2018-06-29T03:37:39.924Z,17.53
2018-06-29T03:40:08.269Z,16.07
2018-06-29T03:42:36.339Z,15.50
2018-06-29T03:45:04.422Z,15.60
2018-06-29T03:47:32.860Z,15.87
2018-06-29T03:50:01.220Z,15.83
2018-06-29T03:52:29.565Z,15.50
2018-06-29T03:54:57.916Z,16.40
2018-06-29T03:57:26.284Z,15.70
2018-06-29T03:59:54.656Z,14.97
2018-06-29T04:02:23.028Z,15.80
2018-06-29T04:04:51.411Z,15.33
2018-06-29T04:07:19.784Z,14.80
2018-06-29T04:09:48.173Z,15.50
2018-06-29T04:12:16.557Z,15.23
2018-06-29T04:14:44.915Z,16.97
2018-06-29T04:17:13.306Z,17.20
2018-06-29T04:19:41.721Z,14.70
2018-06-29T04:22:10.046Z,16.03
2018-06-29T04:24:38.467Z,14.90
2018-06-29T04:27:06.538Z,16.30
2018-06-29T04:29:34.944Z,15.93
2018-06-29T04:32:03.332Z,14.87
2018-06-29T04:34:31.755Z,14.87
2018-06-29T04:37:00.134Z,17.57
2018-06-29T04:39:28.519Z,14.97
2018-06-29T04:41:56.628Z,15.43
2018-06-29T04:44:24.984Z,15.70
2018-06-29T04:46:53.399Z,16.80
2018-06-29T04:49:21.815Z,14.43
2018-06-29T04:51:49.925Z,16.33
2018-06-29T04:54:18.306Z,15.67
2018-06-29T04:56:46.674Z,15.57
2018-06-29T04:59:15.094Z,15.90
2018-06-29T05:01:43.577Z,14.83
2018-06-29T05:04:12.327Z,16.53
2018-06-29T05:06:40.719Z,18.23
2018-06-29T05:09:09.668Z,17.03
2018-06-29T05:11:38.515Z,15.50
2018-06-29T05:14:07.317Z,17.07
2018-06-29T05:16:35.726Z,17.13
2018-06-29T05:19:03.794Z,17.00
2018-06-29T05:21:32.144Z,19.03
2018-06-29T05:24:00.545Z,19.10
2018-06-29T05:26:28.660Z,18.83
2018-06-29T05:28:57.075Z,17.70
2018-06-29T05:31:25.523Z,15.60
2018-06-29T05:33:54.124Z,17.33
2018-06-29T05:36:22.551Z,18.37
2018-06-29T05:38:50.934Z,18.60
2018-06-29T05:41:19.752Z,18.37
2018-06-29T05:43:48.144Z,19.07
2018-06-29T05:46:16.673Z,18.77
2018-06-29T05:48:44.952Z,17.37
2018-06-29T05:51:13.308Z,17.50
2018-06-29T05:53:41.386Z,17.37
2018-06-29T05:56:09.753Z,17.20
2018-06-29T05:58:38.472Z,17.40
2018-06-29T06:01:09.616Z,17.67
2018-06-29T06:03:38.105Z,18.57
2018-06-29T06:06:07.044Z,18.30
2018-06-29T06:08:35.435Z,17.93
2018-06-29T06:11:03.767Z,17.20
2018-06-29T06:13:32.143Z,16.80
2018-06-29T06:16:01.214Z,18.47
2018-06-29T06:18:29.952Z,18.50
2018-06-29T06:20:58.355Z,18.10
2018-06-29T06:23:26.415Z,17.97
2018-06-29T06:25:54.788Z,19.30
2018-06-29T06:28:23.243Z,18.93
2018-06-29T06:30:51.736Z,17.53
2018-06-29T06:33:20.111Z,18.97
2018-06-29T06:35:48.542Z,18.57
2018-06-29T06:38:16.913Z,18.40
2018-06-29T06:40:45.284Z,18.87
2018-06-29T06:43:13.697Z,19.13
2018-06-29T06:45:42.056Z,18.93
2018-06-29T06:48:10.456Z,19.60
2018-06-29T06:50:38.835Z,18.50
2018-06-29T06:53:07.188Z,16.83
2018-06-29T06:55:35.566Z,16.33
2018-06-29T06:58:04.831Z,17.30
2018-06-29T07:00:33.374Z,16.87
2018-06-29T07:03:02.690Z,15.73
2018-06-29T07:05:31.042Z,16.50
2018-06-29T07:07:59.537Z,16.67
2018-06-29T07:10:27.904Z,18.13
2018-06-29T07:12:56.303Z,17.37
2018-06-29T07:15:24.671Z,15.63
2018-06-29T07:17:53.073Z,15.03
2018-06-29T07:20:21.476Z,15.17
2018-06-29T07:22:50.016Z,15.43
2018-06-29T07:25:18.445Z,14.80
2018-06-29T07:27:47.819Z,16.33
2018-06-29T07:30:16.300Z,15.57
2018-06-29T07:32:44.760Z,15.10
2018-06-29T07:35:13.144Z,16.03
2018-06-29T07:37:41.506Z,15.63
2018-06-29T07:40:09.882Z,14.97
2018-06-29T07:42:38.299Z,16.03
2018-06-29T07:45:06.661Z,15.13
2018-06-29T07:47:35.038Z,15.57
2018-06-29T07:50:03.431Z,15.17
2018-06-29T07:52:31.554Z,16.17
2018-06-29T07:55:00.029Z,15.17
2018-06-29T07:57:28.416Z,14.93
2018-06-29T07:59:56.896Z,15.80
2018-06-29T08:02:25.259Z,16.50
2018-06-29T08:04:54.118Z,15.70
2018-06-29T08:07:22.201Z,15.27
2018-06-29T08:09:50.570Z,14.23
2018-06-29T08:12:19.215Z,15.63
2018-06-29T08:14:47.808Z,14.97
2018-06-29T08:17:16.168Z,17.10
2018-06-29T08:19:44.624Z,15.23
2018-06-29T08:22:13.106Z,14.70
2018-06-29T08:24:53.092Z,15.30
2018-06-29T08:27:21.817Z,14.73
2018-06-29T08:29:50.199Z,15.00
2018-06-29T08:32:18.588Z,16.80
2018-06-29T08:34:46.976Z,15.90
2018-06-29T08:37:15.355Z,15.03
2018-06-29T08:39:43.768Z,15.90
2018-06-29T08:42:12.121Z,14.57
2018-06-29T08:44:40.584Z,15.10
2018-06-29T08:47:08.957Z,14.67
2018-06-29T08:49:37.386Z,15.20
2018-06-29T08:52:05.825Z,14.70
2018-06-29T08:54:34.230Z,15.40
2018-06-29T08:57:02.777Z,14.57
2018-06-29T08:59:31.211Z,15.53
2018-06-29T09:01:59.707Z,15.00
2018-06-29T09:04:28.094Z,16.40
2018-06-29T09:06:56.521Z,17.03
2018-06-29T09:09:24.939Z,15.93
2018-06-29T09:11:53.019Z,15.47
2018-06-29T09:14:21.508Z,17.07
2018-06-29T09:16:49.892Z,16.60
2018-06-29T09:19:18.250Z,18.33
2018-06-29T09:21:46.374Z,16.23
2018-06-29T09:24:14.831Z,18.13
2018-06-29T09:26:43.357Z,18.10
2018-06-29T09:29:11.812Z,16.63
2018-06-29T09:31:40.172Z,17.27
2018-06-29T09:34:08.543Z,16.67
2018-06-29T09:36:36.926Z,18.37
2018-06-29T09:39:07.864Z,19.50
2018-06-29T09:41:36.432Z,18.20
2018-06-29T09:44:05.119Z,16.13
2018-06-29T09:46:33.641Z,17.00
2018-06-29T09:49:02.120Z,17.10
2018-06-29T09:51:30.556Z,16.53
2018-06-29T09:53:59.122Z,17.43
2018-06-29T09:56:27.619Z,17.57
2018-06-29T09:58:56.351Z,17.73
2018-06-29T10:01:28.752Z,17.07
2018-06-29T10:03:57.405Z,17.17
2018-06-29T10:06:27.933Z,17.43
2018-06-29T10:09:01.150Z,16.50
2018-06-29T10:11:29.674Z,17.27
2018-06-29T10:13:58.154Z,17.33
2018-06-29T10:16:28.078Z,18.87
2018-06-29T10:18:56.534Z,18.57
2018-06-29T10:21:30.644Z,19.77
2018-06-29T10:23:59.033Z,20.03
2018-06-29T10:26:27.705Z,18.97
2018-06-29T10:28:56.075Z,19.03
2018-06-29T10:31:24.592Z,19.80
2018-06-29T10:33:53.230Z,20.30
2018-06-29T10:36:21.626Z,19.40
2018-06-29T10:38:50.089Z,17.73
2018-06-29T10:41:18.447Z,19.07
2018-06-29T10:43:47.004Z,18.97
2018-06-29T10:46:15.447Z,18.90
2018-06-29T10:48:43.806Z,20.27
2018-06-29T10:51:12.388Z,19.03
2018-06-29T10:53:40.992Z,19.60
2018-06-29T10:56:09.373Z,18.93
2018-06-29T10:58:39.349Z,19.83
2018-06-29T11:01:09.204Z,19.53
2018-06-29T11:03:39.332Z,19.70
2018-06-29T11:06:07.842Z,19.17
2018-06-29T11:08:36.363Z,19.27
2018-06-29T11:11:04.562Z,20.37
2018-06-29T11:13:33.032Z,21.23
2018-06-29T11:16:01.451Z,21.77
2018-06-29T11:18:29.937Z,21.43
2018-06-29T11:20:58.326Z,19.87
2018-06-29T11:23:26.727Z,19.97
2018-06-29T11:25:54.879Z,20.73
2018-06-29T11:28:23.665Z,19.70
2018-06-29T11:30:52.211Z,21.07
2018-06-29T11:33:20.576Z,19.83
2018-06-29T11:35:48.950Z,20.67
2018-06-29T11:38:17.452Z,20.50
2018-06-29T11:40:45.877Z,21.37
2018-06-29T11:43:14.325Z,20.53
2018-06-29T11:45:42.729Z,20.37
2018-06-29T11:48:11.123Z,18.63
2018-06-29T11:50:39.242Z,19.57
2018-06-29T11:53:07.640Z,21.07
2018-06-29T11:55:36.009Z,19.40
2018-06-29T11:58:04.525Z,19.53
2018-06-29T12:00:32.673Z,19.87
2018-06-29T12:03:00.994Z,20.67
2018-06-29T12:05:29.539Z,19.37
2018-06-29T12:07:58.015Z,19.70
2018-06-29T12:10:26.435Z,21.33
2018-06-29T12:12:54.520Z,18.23
2018-06-29T12:15:22.897Z,20.07
2018-06-29T12:17:51.325Z,19.37
2018-06-29T12:20:19.763Z,19.13
2018-06-29T12:22:48.156Z,19.13
2018-06-29T12:25:16.509Z,19.43
2018-06-29T12:27:44.860Z,18.60
2018-06-29T12:30:13.268Z,18.13
2018-06-29T12:32:41.700Z,17.83
2018-06-29T12:35:10.044Z,18.57
2018-06-29T12:37:38.455Z,19.37
2018-06-29T12:40:06.915Z,19.37
2018-06-29T12:42:35.293Z,19.70
2018-06-29T12:45:03.688Z,18.90
2018-06-29T12:47:32.065Z,19.53
2018-06-29T12:50:00.448Z,20.00
2018-06-29T12:52:28.564Z,22.43
2018-06-29T12:54:56.920Z,20.67
2018-06-29T12:57:25.385Z,21.17
2018-06-29T12:59:53.803Z,19.70
2018-06-29T13:02:23.187Z,21.40
2018-06-29T13:04:51.602Z,20.50
2018-06-29T13:07:19.957Z,20.40
2018-06-29T13:09:48.334Z,21.10
2018-06-29T13:12:16.711Z,21.63
2018-06-29T13:14:45.101Z,20.63
2018-06-29T13:17:13.469Z,21.73
2018-06-29T13:19:41.839Z,20.00
2018-06-29T13:22:10.219Z,22.03
2018-06-29T13:24:38.611Z,19.77
2018-06-29T13:27:06.947Z,21.30
2018-06-29T13:29:35.388Z,20.57
2018-06-29T13:32:03.791Z,21.27
2018-06-29T13:34:32.171Z,20.03
2018-06-29T13:37:00.548Z,21.00
2018-06-29T13:39:28.971Z,20.50
2018-06-29T13:41:57.025Z,20.00
2018-06-29T13:44:25.371Z,19.67
2018-06-29T13:46:53.740Z,21.17
2018-06-29T13:49:22.101Z,20.00
2018-06-29T13:51:50.491Z,19.60
2018-06-29T13:54:18.857Z,19.70
2018-06-29T13:56:47.220Z,19.80
2018-06-29T13:59:15.607Z,19.03
2018-06-29T14:01:43.956Z,18.83
2018-06-29T14:04:12.308Z,19.47
2018-06-29T14:06:40.381Z,21.53
2018-06-29T14:09:08.474Z,20.33
2018-06-29T14:11:36.893Z,18.17
2018-06-29T14:14:05.267Z,18.20
2018-06-29T14:16:33.671Z,17.40
2018-06-29T14:19:01.787Z,18.67
2018-06-29T14:21:30.171Z,16.73
2018-06-29T14:23:58.552Z,15.90
2018-06-29T14:26:26.964Z,16.23
2018-06-29T14:28:55.416Z,16.37
2018-06-29T14:31:23.816Z,16.77
2018-06-29T14:33:52.239Z,16.27
2018-06-29T14:36:20.583Z,16.20
2018-06-29T14:38:48.999Z,17.10
2018-06-29T14:41:17.360Z,16.50
2018-06-29T14:43:45.461Z,16.97
2018-06-29T14:46:13.827Z,16.87
2018-06-29T14:48:42.217Z,15.47
2018-06-29T14:51:10.687Z,14.97
2018-06-29T14:53:39.142Z,15.13
2018-06-29T14:56:07.350Z,13.60
2018-06-29T14:58:35.726Z,14.53
2018-06-29T15:01:04.129Z,14.37
2018-06-29T15:03:32.524Z,14.27
2018-06-29T15:06:00.963Z,14.90
2018-06-29T15:08:29.365Z,14.27
2018-06-29T15:10:57.772Z,14.97
2018-06-29T15:13:26.167Z,14.50
2018-06-29T15:15:54.231Z,15.90
2018-06-29T15:18:22.307Z,14.40
2018-06-29T15:20:50.692Z,15.53
2018-06-29T15:23:18.732Z,15.00
2018-06-29T15:25:47.211Z,14.77
2018-06-29T15:28:15.596Z,15.97
2018-06-29T15:30:44.070Z,15.53
2018-06-29T15:33:12.454Z,14.40
2018-06-29T15:35:40.882Z,15.10
2018-06-29T15:38:09.254Z,14.27
2018-06-29T15:40:37.668Z,14.73
2018-06-29T15:43:08.503Z,14.53
2018-06-29T15:45:37.016Z,14.13
2018-06-29T15:48:05.801Z,15.07
2018-06-29T15:50:34.182Z,14.50
2018-06-29T15:53:02.289Z,14.27
2018-06-29T15:55:30.696Z,13.63
2018-06-29T15:57:59.137Z,15.53
2018-06-29T16:00:27.596Z,14.63
2018-06-29T16:02:55.710Z,14.87
2018-06-29T16:05:24.084Z,14.63
2018-06-29T16:07:52.472Z,13.87
2018-06-29T16:10:20.833Z,14.53
2018-06-29T16:12:49.280Z,15.63
2018-06-29T16:15:17.382Z,14.67
2018-06-29T16:17:45.746Z,14.63
2018-06-29T16:20:14.137Z,14.27
2018-06-29T16:22:42.468Z,14.27
2018-06-29T16:25:10.946Z,15.03
2018-06-29T16:27:39.318Z,15.73
2018-06-29T16:30:08.442Z,14.40
2018-06-29T16:32:36.512Z,15.07
2018-06-29T16:35:04.629Z,15.40
2018-06-29T16:37:33.008Z,14.97
2018-06-29T16:40:01.376Z,14.53
2018-06-29T16:42:29.844Z,14.27
2018-06-29T16:44:58.239Z,14.17
2018-06-29T16:47:26.591Z,14.07
2018-06-29T16:49:54.947Z,14.60
2018-06-29T16:52:23.029Z,14.53
2018-06-29T16:54:51.428Z,14.53
2018-06-29T16:57:19.774Z,13.23
2018-06-29T16:59:47.866Z,14.10
2018-06-29T17:02:16.216Z,15.33
2018-06-29T17:04:44.285Z,13.47
2018-06-29T17:07:12.704Z,13.17
2018-06-29T17:09:41.139Z,13.73
2018-06-29T17:12:09.516Z,13.77
2018-06-29T17:14:37.591Z,14.03
2018-06-29T17:17:05.817Z,13.23
2018-06-29T17:19:34.511Z,14.17
2018-06-29T17:22:02.939Z,14.17
2018-06-29T17:24:30.976Z,14.80
2018-06-29T17:26:59.379Z,14.40
2018-06-29T17:29:27.535Z,13.67
2018-06-29T17:31:55.904Z,13.83
2018-06-29T17:34:24.294Z,13.43
2018-06-29T17:36:52.766Z,13.93
2018-06-29T17:39:21.280Z,13.97
2018-06-29T17:41:49.418Z,14.23
2018-06-29T17:44:17.811Z,14.33
2018-06-29T17:46:46.237Z,14.03
2018-06-29T17:49:14.668Z,15.90
2018-06-29T17:51:43.040Z,14.17
2018-06-29T17:54:11.574Z,13.77
2018-06-29T17:56:40.006Z,15.23
2018-06-29T17:59:08.432Z,15.37
2018-06-29T18:01:36.841Z,14.67
2018-06-29T18:04:05.390Z,13.97
2018-06-29T18:06:33.827Z,14.53
2018-06-29T18:09:09.884Z,14.00
2018-06-29T18:11:38.003Z,13.90
2018-06-29T18:14:06.407Z,14.47
2018-06-29T18:16:34.964Z,15.10
2018-06-29T18:19:03.788Z,13.83
2018-06-29T18:21:32.300Z,14.13
2018-06-29T18:24:00.776Z,14.30
2018-06-29T18:26:29.228Z,14.70
2018-06-29T18:28:57.610Z,13.63
2018-06-29T18:31:26.058Z,14.57
2018-06-29T18:33:54.470Z,14.17
2018-06-29T18:36:22.901Z,14.00
2018-06-29T18:38:51.351Z,13.50
2018-06-29T18:41:19.459Z,14.17
2018-06-29T18:43:47.850Z,13.17
2018-06-29T18:46:16.368Z,13.40
2018-06-29T18:48:44.841Z,13.97
2018-06-29T18:51:13.230Z,13.97
2018-06-29T18:53:41.655Z,14.33
2018-06-29T18:56:10.124Z,15.43
2018-06-29T18:58:38.580Z,14.90
2018-06-29T19:01:07.226Z,14.23
2018-06-29T19:03:35.585Z,14.07
2018-06-29T19:06:04.050Z,13.27
2018-06-29T19:08:32.444Z,13.57
2018-06-29T19:11:00.823Z,14.30
2018-06-29T19:13:29.271Z,15.47
2018-06-29T19:15:57.655Z,14.87
2018-06-29T19:18:26.111Z,15.20
2018-06-29T19:20:54.496Z,13.87
2018-06-29T19:23:22.911Z,15.70
2018-06-29T19:25:51.355Z,13.87
2018-06-29T19:28:19.741Z,15.50
2018-06-29T19:30:48.134Z,15.20
2018-06-29T19:33:16.590Z,22.13
2018-06-29T19:35:44.700Z,16.27
2018-06-29T19:38:13.152Z,15.03
2018-06-29T19:40:41.618Z,15.13
2018-06-29T19:43:09.774Z,14.60
2018-06-29T19:45:38.005Z,14.43
2018-06-29T19:48:07.149Z,13.70
2018-06-29T19:50:38.736Z,13.90
2018-06-29T19:53:07.419Z,14.20
2018-06-29T19:55:35.850Z,13.97
2018-06-29T19:58:04.295Z,13.30
2018-06-29T20:00:32.774Z,12.87
2018-06-29T20:03:01.206Z,13.67
2018-06-29T20:05:29.660Z,13.30
2018-06-29T20:07:58.207Z,13.57
2018-06-29T20:10:26.596Z,14.33
2018-06-29T20:12:54.975Z,13.93
2018-06-29T20:15:23.542Z,13.80
2018-06-29T20:17:51.925Z,13.50
2018-06-29T20:20:20.356Z,13.73
2018-06-29T20:22:48.737Z,13.83
2018-06-29T20:25:16.822Z,14.50
2018-06-29T20:27:44.897Z,13.97
2018-06-29T20:30:13.320Z,15.43
2018-06-29T20:32:42.670Z,14.67
2018-06-29T20:35:11.063Z,14.53
2018-06-29T20:37:40.693Z,15.13
2018-06-29T20:40:09.139Z,14.03
2018-06-29T20:42:37.512Z,15.10
2018-06-29T20:45:05.935Z,14.27
2018-06-29T20:47:34.354Z,13.53
2018-06-29T20:50:02.758Z,14.23
2018-06-29T20:52:31.198Z,13.50
2018-06-29T20:54:59.651Z,14.03
2018-06-29T20:57:28.137Z,13.17
2018-06-29T20:59:56.564Z,13.53
2018-06-29T21:02:24.671Z,14.87
2018-06-29T21:04:53.055Z,14.80
2018-06-29T21:07:21.520Z,14.10
2018-06-29T21:09:50.725Z,13.67
2018-06-29T21:12:19.214Z,14.53
2018-06-29T21:14:47.668Z,13.20
2018-06-29T21:17:16.152Z,14.00
2018-06-29T21:19:44.605Z,12.80
2018-06-29T21:22:13.676Z,14.00
2018-06-29T21:24:42.166Z,12.73
2018-06-29T21:27:10.792Z,13.27
2018-06-29T21:29:39.258Z,12.83
2018-06-29T21:32:08.819Z,13.30
2018-06-29T21:34:37.174Z,12.83
2018-06-29T21:37:05.607Z,13.10
2018-06-29T21:39:33.755Z,12.83
2018-06-29T21:42:02.154Z,13.13
2018-06-29T21:44:30.215Z,12.30
2018-06-29T21:46:58.652Z,13.00
2018-06-29T21:49:27.041Z,13.20
2018-06-29T21:51:55.450Z,13.23
2018-06-29T21:54:23.919Z,11.80
2018-06-29T21:56:52.312Z,13.07
2018-06-29T21:59:20.695Z,11.80
2018-06-29T22:01:49.064Z,13.13
2018-06-29T22:04:17.475Z,12.20
2018-06-29T22:06:45.898Z,12.80
2018-06-29T22:09:14.258Z,12.87
2018-06-29T22:11:42.639Z,12.17
2018-06-29T22:14:11.004Z,12.73
2018-06-29T22:16:39.403Z,12.13
2018-06-29T22:19:07.778Z,13.03
2018-06-29T22:21:36.214Z,12.07
2018-06-29T22:24:04.645Z,11.73
2018-06-29T22:26:33.003Z,11.60
2018-06-29T22:29:01.406Z,11.77
2018-06-29T22:31:29.993Z,11.57
2018-06-29T22:33:58.643Z,12.03
2018-06-29T22:36:27.108Z,11.53
2018-06-29T22:38:55.464Z,11.93
2018-06-29T22:41:23.568Z,12.33
2018-06-29T22:43:52.000Z,12.00
2018-06-29T22:46:20.612Z,11.67
2018-06-29T22:48:48.991Z,11.77
2018-06-29T22:51:17.390Z,11.70
2018-06-29T22:53:45.819Z,12.70
2018-06-29T22:56:14.195Z,11.70
2018-06-29T22:58:42.620Z,12.07
2018-06-29T23:01:11.074Z,12.27
2018-06-29T23:03:44.860Z,11.03
2018-06-29T23:06:13.270Z,11.80
2018-06-29T23:08:41.684Z,11.57
2018-06-29T23:11:10.040Z,11.57
2018-06-29T23:13:38.392Z,11.03
2018-06-29T23:16:06.480Z,11.47
2018-06-29T23:18:34.892Z,11.87
2018-06-29T23:21:03.265Z,12.07
2018-06-29T23:23:31.779Z,11.80
2018-06-29T23:26:00.173Z,12.10
2018-06-29T23:28:28.304Z,11.20
2018-06-29T23:30:56.722Z,10.80
2018-06-29T23:33:24.835Z,11.07
2018-06-29T23:35:53.187Z,11.50
2018-06-29T23:38:21.556Z,10.50
2018-06-29T23:40:49.645Z,11.20
2018-06-29T23:43:18.138Z,11.40
2018-06-29T23:45:46.544Z,10.17
2018-06-29T23:48:14.908Z,10.87
2018-06-29T23:50:43.648Z,11.00
2018-06-29T23:53:12.031Z,10.60
2018-06-29T23:55:40.520Z,10.03
2018-06-29T23:58:08.944Z,10.00
